Time;durP1;ratioP1;P1;durP2;ratioP2;P2;SDS_P1;SDS_P2;PMS_P1;PMS_P2;Temp;Humidity;BMP_temperature;BMP_pressure;BME280_temperature;BME280_humidity;BME280_pressure;Samples;Min_cycle;Max_cycle;Signal;HPM_P1;HPM_P2
2022/08/20 00:00:54;;;;;;;15.13;11.45;;;21.00;99.90;;;;;;5052630;28;20098;-85
2022/08/20 00:03:27;;;;;;;15.63;12.15;;;21.00;99.90;;;;;;5069524;28;20048;-84
2022/08/20 00:06:16;;;;;;;17.40;14.40;;;21.00;99.90;;;;;;5043128;28;20036;-84
2022/08/20 00:08:42;;;;;;;13.90;12.25;;;21.00;99.90;;;;;;5069632;28;20036;-84
2022/08/20 00:11:11;;;;;;;14.73;12.35;;;20.90;99.90;;;;;;5061013;28;20041;-84
2022/08/20 00:13:49;;;;;;;14.25;12.73;;;20.90;99.90;;;;;;5076101;28;20086;-84
2022/08/20 00:16:17;;;;;;;13.52;12.10;;;20.90;99.90;;;;;;5066932;28;20040;-84
2022/08/20 00:18:44;;;;;;;13.15;11.75;;;20.90;99.90;;;;;;5076352;28;20106;-84
2022/08/20 00:21:12;;;;;;;15.57;12.15;;;20.80;99.90;;;;;;5068647;28;20033;-84
2022/08/20 00:23:40;;;;;;;15.45;13.63;;;20.80;99.90;;;;;;5074377;28;20040;-84
2022/08/20 00:26:06;;;;;;;14.30;12.80;;;20.80;99.90;;;;;;5076154;28;20047;-84
2022/08/20 00:28:32;;;;;;;14.07;12.32;;;20.70;99.90;;;;;;5071881;28;20044;-84
2022/08/20 00:30:58;;;;;;;15.25;13.60;;;20.80;99.90;;;;;;5038375;28;20163;-84
2022/08/20 00:33:24;;;;;;;15.15;12.30;;;20.70;99.90;;;;;;5055860;28;20033;-84
2022/08/20 00:35:53;;;;;;;15.90;12.60;;;20.70;99.90;;;;;;5066126;28;20037;-84
2022/08/20 00:38:19;;;;;;;14.48;12.98;;;20.70;99.90;;;;;;5076141;28;20044;-84
2022/08/20 00:40:50;;;;;;;15.65;13.15;;;20.70;99.90;;;;;;5075443;28;20076;-84
2022/08/20 00:43:26;;;;;;;14.75;13.18;;;20.70;99.90;;;;;;5055652;28;20045;-84
2022/08/20 00:45:56;;;;;;;14.85;13.10;;;20.70;99.90;;;;;;5055795;28;20045;-84
2022/08/20 00:48:29;;;;;;;15.15;12.43;;;20.60;99.90;;;;;;5065679;28;20040;-84
2022/08/20 00:51:01;;;;;;;13.85;12.35;;;20.70;99.90;;;;;;5058783;28;20043;-84
2022/08/20 00:53:28;;;;;;;16.45;14.02;;;20.60;99.90;;;;;;5049314;28;20486;-84
2022/08/20 00:55:54;;;;;;;15.57;13.05;;;20.60;99.90;;;;;;5075903;28;20044;-84
2022/08/20 00:58:20;;;;;;;13.35;11.98;;;20.60;99.90;;;;;;5067589;28;20044;-84
2022/08/20 01:00:48;;;;;;;15.25;13.65;;;20.60;99.90;;;;;;5074333;28;20055;-84
2022/08/20 01:03:16;;;;;;;13.38;11.73;;;20.60;99.90;;;;;;5070573;28;20590;-84
2022/08/20 01:05:45;;;;;;;14.15;12.35;;;20.50;99.90;;;;;;5058499;28;20040;-84
2022/08/20 01:08:11;;;;;;;15.00;12.10;;;20.50;99.90;;;;;;5059192;28;20174;-84
2022/08/20 01:10:40;;;;;;;13.30;11.90;;;20.50;99.90;;;;;;5057682;28;20045;-84
2022/08/20 01:13:13;;;;;;;16.25;12.40;;;20.50;99.90;;;;;;5055594;28;20577;-84
2022/08/20 01:15:41;;;;;;;15.02;12.82;;;20.50;99.90;;;;;;5063440;28;20033;-84
2022/08/20 01:18:12;;;;;;;15.70;12.40;;;20.50;99.90;;;;;;5038983;28;20040;-84
2022/08/20 01:21:05;;;;;;;13.43;11.27;;;20.40;99.90;;;;;;5055253;28;20033;-84
2022/08/20 01:23:37;;;;;;;;;;;20.40;99.90;;;;;;5011811;28;20389;-84
2022/08/20 01:26:16;;;;;;;14.68;12.60;;;20.30;99.90;;;;;;4996366;28;19921;-84
2022/08/20 01:28:51;;;;;;;15.15;12.45;;;20.30;99.90;;;;;;4983301;28;20046;-84
2022/08/20 01:31:23;;;;;;;13.68;12.25;;;20.30;99.90;;;;;;4995503;28;20049;-85
2022/08/20 01:33:49;;;;;;;14.95;12.80;;;20.30;99.90;;;;;;5014396;28;20045;-84
2022/08/20 01:36:19;;;;;;;13.57;11.98;;;20.30;99.90;;;;;;4998428;28;20045;-84
2022/08/20 01:38:45;;;;;;;14.60;11.55;;;20.30;99.90;;;;;;4992714;28;20042;-84
2022/08/20 01:41:15;;;;;;;17.90;12.93;;;20.30;99.90;;;;;;5010377;28;20071;-84
2022/08/20 01:43:44;;;;;;;14.10;11.88;;;20.30;99.90;;;;;;4996493;28;20057;-84
2022/08/20 01:46:10;;;;;;;12.77;10.93;;;20.30;99.90;;;;;;5000694;28;20046;-84
2022/08/20 01:48:37;;;;;;;14.50;11.48;;;20.30;99.90;;;;;;4994445;28;20125;-84
2022/08/20 01:51:12;;;;;;;13.98;11.27;;;20.20;99.90;;;;;;4985172;28;20029;-85
2022/08/20 01:53:41;;;;;;;14.75;11.75;;;20.20;99.90;;;;;;4998077;28;20053;-85
2022/08/20 01:56:14;;;;;;;16.15;12.00;;;20.20;99.90;;;;;;4997820;28;20120;-85
2022/08/20 01:58:44;;;;;;;13.30;10.63;;;20.20;99.90;;;;;;5013398;28;20125;-84
2022/08/20 02:01:22;;;;;;;14.00;10.65;;;20.20;99.90;;;;;;5045846;28;20092;-84
2022/08/20 02:03:48;;;;;;;12.27;10.50;;;20.20;99.90;;;;;;5053061;28;20094;-85
2022/08/20 02:06:15;;;;;;;13.48;10.13;;;20.10;99.90;;;;;;5067122;28;20048;-85
2022/08/20 02:08:41;;;;;;;14.40;10.52;;;20.10;99.90;;;;;;5071313;28;20047;-84
2022/08/20 02:11:07;;;;;;;17.98;10.45;;;20.10;99.90;;;;;;5045566;28;20029;-84
2022/08/20 02:13:33;;;;;;;14.75;10.13;;;20.10;99.90;;;;;;5034760;28;20051;-84
2022/08/20 02:15:58;;;;;;;13.63;9.60;;;20.10;99.90;;;;;;5051522;28;20451;-84
2022/08/20 02:18:24;;;;;;;12.25;8.98;;;20.10;99.90;;;;;;5063552;28;20040;-84
2022/08/20 02:20:51;;;;;;;14.35;10.05;;;20.00;99.90;;;;;;5070882;28;20127;-84
2022/08/20 02:23:17;;;;;;;12.95;9.18;;;20.00;99.90;;;;;;5053965;28;20024;-84
2022/08/20 02:25:46;;;;;;;12.02;9.02;;;20.00;99.90;;;;;;5071208;28;20045;-85
2022/08/20 02:28:18;;;;;;;12.60;9.80;;;20.00;99.90;;;;;;5054214;28;20039;-84
2022/08/20 02:30:45;;;;;;;;;;;20.00;99.90;;;;;;5051333;28;20041;-84
2022/08/20 02:33:14;;;;;;;15.13;9.90;;;19.90;99.90;;;;;;5050930;28;19983;-84
2022/08/20 02:35:41;;;;;;;13.60;10.48;;;19.90;99.90;;;;;;5055390;28;20082;-84
2022/08/20 02:38:08;;;;;;;15.05;10.43;;;19.90;99.90;;;;;;5054304;28;20045;-84
2022/08/20 02:40:34;;;;;;;14.68;9.85;;;19.90;99.90;;;;;;5047601;28;20067;-84
2022/08/20 02:43:01;;;;;;;14.40;10.10;;;19.80;99.90;;;;;;5050205;28;20041;-84
2022/08/20 02:45:28;;;;;;;15.75;9.73;;;19.80;99.90;;;;;;5050750;28;20101;-84
2022/08/20 02:47:55;;;;;;;15.65;9.75;;;19.80;99.90;;;;;;5042110;28;20364;-84
2022/08/20 02:50:22;;;;;;;14.25;10.07;;;19.80;99.90;;;;;;5034270;28;20060;-84
2022/08/20 02:52:48;;;;;;;15.18;10.35;;;19.80;99.90;;;;;;5051787;28;20096;-84
2022/08/20 02:55:14;;;;;;;14.20;9.85;;;19.70;99.90;;;;;;5057007;28;20068;-84
2022/08/20 02:57:40;;;;;;;12.85;9.20;;;19.70;99.90;;;;;;5050842;28;20036;-84
2022/08/20 03:00:18;;;;;;;13.20;10.35;;;19.70;99.90;;;;;;5037906;28;20064;-84
2022/08/20 03:02:44;;;;;;;15.13;10.68;;;19.70;99.90;;;;;;5052210;28;20033;-84
2022/08/20 03:05:10;;;;;;;15.23;9.48;;;19.70;99.90;;;;;;5050704;28;20055;-84
2022/08/20 03:07:41;;;;;;;13.60;9.73;;;19.60;99.90;;;;;;5058925;28;20045;-84
2022/08/20 03:10:07;;;;;;;16.50;11.10;;;19.60;99.90;;;;;;5033927;28;20040;-84
2022/08/20 03:12:33;;;;;;;15.93;10.82;;;19.60;99.90;;;;;;5057831;28;20040;-84
2022/08/20 03:14:59;;;;;;;14.82;11.63;;;19.60;99.90;;;;;;5051455;28;20091;-84
2022/08/20 03:17:24;;;;;;;16.50;11.13;;;19.50;99.90;;;;;;5038794;28;20044;-84
2022/08/20 03:19:50;;;;;;;15.27;10.55;;;19.40;99.90;;;;;;5070244;28;20036;-84
2022/08/20 03:22:15;;;;;;;15.73;11.93;;;19.40;99.90;;;;;;5070010;28;20498;-84
2022/08/20 03:24:41;;;;;;;13.43;10.30;;;19.40;99.90;;;;;;5034811;28;20051;-84
2022/08/20 03:27:06;;;;;;;15.70;10.60;;;19.40;99.90;;;;;;5050037;28;20040;-84
2022/08/20 03:29:32;;;;;;;13.70;10.23;;;19.40;99.90;;;;;;5061267;28;20431;-84
2022/08/20 03:31:58;;;;;;;13.50;10.15;;;19.30;99.90;;;;;;5049497;28;20037;-85
2022/08/20 03:34:24;;;;;;;14.75;9.68;;;19.30;99.90;;;;;;5052433;28;20438;-84
2022/08/20 03:36:49;;;;;;;12.35;9.00;;;19.30;99.90;;;;;;5055387;28;20119;-84
2022/08/20 03:39:15;;;;;;;14.48;8.95;;;19.20;99.90;;;;;;5049756;28;20048;-84
2022/08/20 03:41:40;;;;;;;15.77;9.40;;;19.30;99.90;;;;;;5049264;28;20037;-84
2022/08/20 03:44:06;;;;;;;12.65;9.38;;;19.20;99.90;;;;;;5066718;28;20047;-84
2022/08/20 03:46:32;;;;;;;17.13;8.82;;;19.20;99.90;;;;;;5068833;28;20040;-84
2022/08/20 03:48:58;;;;;;;13.32;9.25;;;19.10;99.90;;;;;;5037373;28;20039;-84
2022/08/20 03:51:24;;;;;;;14.85;10.25;;;19.10;99.90;;;;;;5049407;28;20158;-84
2022/08/20 03:53:49;;;;;;;13.63;9.45;;;19.10;99.90;;;;;;5033170;28;20049;-85
2022/08/20 03:56:16;;;;;;;11.10;8.90;;;19.00;99.90;;;;;;5050698;28;20068;-84
2022/08/20 03:58:42;;;;;;;11.18;8.20;;;19.00;99.90;;;;;;5052772;28;20049;-84
2022/08/20 04:01:07;;;;;;;11.77;8.10;;;18.90;99.90;;;;;;5061952;28;20033;-84
2022/08/20 04:03:34;;;;;;;14.57;8.50;;;18.90;99.90;;;;;;5067302;28;20048;-84
2022/08/20 04:05:59;;;;;;;13.07;9.40;;;18.90;99.90;;;;;;5069662;28;20051;-84
2022/08/20 04:08:28;;;;;;;14.02;9.65;;;18.80;99.90;;;;;;5060429;28;20037;-84
2022/08/20 04:10:56;;;;;;;10.60;7.38;;;18.90;99.90;;;;;;5052618;28;20094;-84
2022/08/20 04:13:23;;;;;;;10.50;6.20;;;18.80;99.90;;;;;;5063101;28;20556;-84
2022/08/20 04:15:54;;;;;;;12.52;8.95;;;18.70;99.90;;;;;;5049824;28;20410;-84
2022/08/20 04:18:22;;;;;;;13.38;9.40;;;18.80;99.90;;;;;;5050922;28;20453;-84
2022/08/20 04:20:49;;;;;;;13.80;10.07;;;18.70;99.90;;;;;;5048861;28;20075;-84
2022/08/20 04:23:15;;;;;;;14.68;9.68;;;18.70;99.90;;;;;;5032521;28;20044;-84
2022/08/20 04:25:42;;;;;;;11.80;8.95;;;18.70;99.90;;;;;;5038280;28;20244;-84
2022/08/20 04:28:12;;;;;;;15.25;8.90;;;18.70;99.90;;;;;;5034756;28;20087;-84
2022/08/20 04:30:38;;;;;;;15.98;10.40;;;18.70;99.90;;;;;;5049495;28;20375;-84
2022/08/20 04:33:04;;;;;;;15.07;9.70;;;18.70;99.90;;;;;;5031754;28;20045;-84
2022/08/20 04:35:30;;;;;;;10.15;8.30;;;18.70;99.90;;;;;;5050418;28;20041;-84
2022/08/20 04:38:05;;;;;;;13.00;8.95;;;18.70;99.90;;;;;;5049182;28;20049;-84
2022/08/20 04:43:16;;;;;;;14.52;9.43;;;18.70;99.90;;;;;;5048945;28;20044;-84
2022/08/20 04:45:42;;;;;;;13.32;9.02;;;18.70;99.90;;;;;;5052429;28;20040;-84
2022/08/20 04:48:08;;;;;;;11.63;8.90;;;18.70;99.90;;;;;;5054165;28;20064;-84
2022/08/20 04:50:36;;;;;;;13.40;9.35;;;18.70;99.90;;;;;;5049103;28;20582;-84
2022/08/20 04:53:04;;;;;;;14.15;8.98;;;18.70;99.90;;;;;;5039838;28;20029;-84
2022/08/20 04:55:30;;;;;;;15.18;9.80;;;18.70;99.90;;;;;;5032642;28;20143;-84
2022/08/20 04:58:03;;;;;;;15.75;9.57;;;18.70;99.90;;;;;;5051585;28;20545;-84
2022/08/20 05:00:30;;;;;;;13.95;9.45;;;18.70;99.90;;;;;;5042009;28;20444;-84
2022/08/20 05:02:56;;;;;;;15.02;9.02;;;18.70;99.90;;;;;;5052286;28;20048;-84
2022/08/20 05:05:22;;;;;;;14.00;9.65;;;18.70;99.90;;;;;;5043937;28;20124;-84
2022/08/20 05:07:47;;;;;;;13.65;8.98;;;18.70;99.90;;;;;;5052814;28;20051;-84
2022/08/20 05:10:15;;;;;;;13.63;8.88;;;18.70;99.90;;;;;;5060321;28;20534;-84
2022/08/20 05:12:42;;;;;;;13.45;8.68;;;18.60;99.90;;;;;;5052634;28;20445;-84
2022/08/20 05:15:11;;;;;;;14.68;8.27;;;18.70;99.90;;;;;;5055140;28;20044;-84
2022/08/20 05:17:41;;;;;;;12.77;8.75;;;18.60;99.90;;;;;;5056803;28;20037;-83
2022/08/20 05:20:10;;;;;;;14.50;8.75;;;18.60;99.90;;;;;;5052187;28;20041;-83
2022/08/20 05:22:36;;;;;;;14.20;9.35;;;18.60;99.90;;;;;;5044574;28;20052;-84
2022/08/20 05:25:02;;;;;;;13.25;9.00;;;18.60;99.90;;;;;;5055487;28;20041;-84
2022/08/20 05:27:29;;;;;;;13.23;9.57;;;18.60;99.90;;;;;;5069014;28;20144;-84
2022/08/20 05:30:08;;;;;;;12.05;8.55;;;18.60;99.90;;;;;;5065218;28;20036;-84
2022/08/20 05:32:34;;;;;;;15.75;9.38;;;18.60;99.90;;;;;;5054649;28;20486;-84
2022/08/20 05:35:06;;;;;;;13.60;8.75;;;18.60;99.90;;;;;;5060975;28;20072;-84
2022/08/20 05:37:36;;;;;;;11.80;4.88;;;18.60;99.90;;;;;;5035676;28;20041;-84
2022/08/20 05:40:09;;;;;;;11.95;7.32;;;18.50;99.90;;;;;;5039514;28;20448;-84
2022/08/20 05:42:34;;;;;;;13.32;8.35;;;18.50;99.90;;;;;;5038254;28;20029;-84
2022/08/20 05:45:00;;;;;;;13.50;7.63;;;18.50;99.90;;;;;;5046812;28;20611;-84
2022/08/20 05:47:27;;;;;;;14.00;8.10;;;18.50;99.90;;;;;;5062141;28;20519;-83
2022/08/20 05:49:53;;;;;;;13.45;8.13;;;18.50;99.90;;;;;;5072119;28;20037;-84
2022/08/20 05:52:18;;;;;;;14.02;8.77;;;18.40;99.90;;;;;;5055762;28;20162;-84
2022/08/20 05:54:44;;;;;;;12.65;8.38;;;18.40;99.90;;;;;;5052998;28;20041;-84
2022/08/20 05:57:09;;;;;;;16.85;8.48;;;18.40;99.90;;;;;;5054897;28;20120;-84
2022/08/20 05:59:35;;;;;;;12.40;8.20;;;18.40;99.90;;;;;;5054810;28;20047;-84
2022/08/20 06:04:23;;;;;;;14.65;10.10;;;18.40;99.90;;;;;;5066966;28;20039;-85
2022/08/20 06:04:46;;;;;;;13.38;8.80;;;18.40;99.90;;;;;;5065222;28;20506;-85
2022/08/20 06:07:14;;;;;;;13.63;8.48;;;18.40;99.90;;;;;;5071552;28;20051;-84
2022/08/20 06:09:39;;;;;;;15.65;8.00;;;18.40;99.90;;;;;;5054156;28;20041;-84
2022/08/20 06:12:07;;;;;;;15.18;9.05;;;18.40;99.90;;;;;;5034723;28;20044;-84
2022/08/20 06:14:34;;;;;;;12.63;7.97;;;18.40;99.90;;;;;;5042685;28;20045;-84
2022/08/20 06:17:15;;;;;;;12.25;7.65;;;18.40;99.90;;;;;;5051648;28;20131;-84
2022/08/20 06:19:42;;;;;;;13.93;8.00;;;18.50;99.90;;;;;;5053720;28;20506;-84
2022/08/20 06:22:08;;;;;;;16.33;8.80;;;18.50;99.90;;;;;;5055781;28;20048;-84
2022/08/20 06:24:34;;;;;;;14.75;8.25;;;18.60;99.90;;;;;;5051394;28;20037;-84
2022/08/20 06:27:02;;;;;;;14.57;8.20;;;18.70;99.90;;;;;;5067058;28;20049;-84
2022/08/20 06:29:28;;;;;;;14.07;8.38;;;18.80;99.90;;;;;;5054663;28;20036;-84
2022/08/20 06:31:55;;;;;;;14.55;8.10;;;18.80;99.90;;;;;;5061260;28;20028;-84
2022/08/20 06:34:21;;;;;;;13.20;7.53;;;18.90;99.90;;;;;;5070913;28;20047;-84
2022/08/20 06:36:46;;;;;;;14.75;8.45;;;18.90;99.90;;;;;;5066243;28;20371;-84
2022/08/20 06:39:14;;;;;;;11.88;6.80;;;18.90;99.90;;;;;;5049623;28;20043;-84
2022/08/20 06:41:39;;;;;;;14.40;6.95;;;19.00;99.90;;;;;;5070377;28;20055;-84
2022/08/20 06:44:08;;;;;;;18.52;6.35;;;19.00;99.90;;;;;;5058638;28;20044;-84
2022/08/20 06:46:35;;;;;;;13.45;6.00;;;19.00;99.90;;;;;;5050732;28;20083;-84
2022/08/20 06:49:02;;;;;;;14.27;6.25;;;19.10;99.90;;;;;;5034063;28;20074;-84
2022/08/20 06:51:28;;;;;;;14.82;6.53;;;19.10;99.90;;;;;;5033149;28;20037;-83
2022/08/20 06:53:55;;;;;;;16.45;6.45;;;19.10;99.90;;;;;;5050597;28;20029;-84
2022/08/20 06:56:20;;;;;;;11.30;6.63;;;19.20;99.90;;;;;;5041413;28;20045;-84
2022/08/20 06:58:46;;;;;;;12.55;5.70;;;19.20;99.90;;;;;;5034377;28;20072;-84
2022/08/20 07:01:12;;;;;;;14.57;5.88;;;19.20;99.90;;;;;;5033138;28;20072;-84
2022/08/20 07:03:41;;;;;;;12.55;4.78;;;19.20;99.90;;;;;;5070413;28;20378;-84
2022/08/20 07:06:07;;;;;;;13.95;5.15;;;19.30;99.90;;;;;;5065496;28;20041;-84
2022/08/20 07:08:34;;;;;;;14.32;5.40;;;19.30;99.90;;;;;;5066838;28;20059;-83
2022/08/20 07:11:00;;;;;;;11.25;4.70;;;19.40;99.90;;;;;;5069528;28;20135;-84
2022/08/20 07:13:27;;;;;;;12.55;4.65;;;19.40;99.90;;;;;;5054308;28;20037;-84
2022/08/20 07:15:53;;;;;;;12.52;4.55;;;19.50;99.90;;;;;;5033743;28;20372;-84
2022/08/20 07:18:20;;;;;;;13.43;4.65;;;19.60;99.90;;;;;;5060936;28;20048;-84
2022/08/20 07:20:45;;;;;;;12.07;3.80;;;19.60;99.90;;;;;;5052360;28;20056;-84
2022/08/20 07:23:11;;;;;;;12.68;3.70;;;19.70;99.90;;;;;;5069314;28;20040;-85
2022/08/20 07:25:40;;;;;;;11.85;4.10;;;19.70;99.90;;;;;;5069441;28;20037;-85
2022/08/20 07:28:11;;;;;;;12.07;3.60;;;19.80;99.90;;;;;;5069307;28;20096;-84
2022/08/20 07:33:21;;;;;;;12.60;3.15;;;19.70;99.90;;;;;;5066691;28;20040;-85
2022/08/20 07:35:47;;;;;;;10.73;3.30;;;19.70;99.90;;;;;;5053504;28;20032;-85
2022/08/20 07:38:25;;;;;;;12.23;3.10;;;19.70;99.90;;;;;;5060324;28;20051;-84
2022/08/20 07:40:55;;;;;;;10.70;3.05;;;19.80;99.90;;;;;;5069463;28;20053;-85
2022/08/20 07:43:24;;;;;;;10.02;2.50;;;19.90;99.90;;;;;;5044251;28;20692;-85
2022/08/20 07:45:54;;;;;;;10.15;2.47;;;20.00;99.90;;;;;;5049675;28;20041;-85
2022/08/20 07:48:19;;;;;;;11.50;2.42;;;20.00;99.90;;;;;;5032862;28;20080;-85
2022/08/20 07:50:48;;;;;;;9.32;2.33;;;20.10;99.90;;;;;;5052354;28;20068;-85
2022/08/20 07:53:15;;;;;;;11.43;2.70;;;20.10;99.90;;;;;;5052848;28;20119;-85
2022/08/20 07:55:41;;;;;;;9.20;2.13;;;20.20;99.90;;;;;;5060385;28;20506;-85
2022/08/20 07:58:12;;;;;;;9.13;2.28;;;20.30;99.90;;;;;;5069235;28;20039;-84
2022/08/20 08:00:39;;;;;;;9.43;2.10;;;20.30;99.90;;;;;;5051009;28;20070;-85
2022/08/20 08:03:05;;;;;;;8.55;1.98;;;20.30;99.90;;;;;;5032391;28;20490;-85
2022/08/20 08:05:34;;;;;;;8.55;2.15;;;20.30;99.90;;;;;;5049267;28;20053;-85
2022/08/20 08:08:01;;;;;;;10.23;2.20;;;20.30;99.90;;;;;;5057546;28;20047;-85
2022/08/20 08:10:27;;;;;;;9.50;2.38;;;20.30;99.90;;;;;;5050832;28;20049;-85
2022/08/20 08:12:57;;;;;;;11.43;2.25;;;20.30;99.90;;;;;;5031901;28;20033;-85
2022/08/20 08:15:31;;;;;;;11.35;2.85;;;20.30;99.90;;;;;;5065997;28;20551;-85
2022/08/20 08:18:02;;;;;;;7.70;1.98;;;20.40;99.90;;;;;;5069545;28;20032;-85
2022/08/20 08:20:28;;;;;;;8.10;2.00;;;20.50;99.90;;;;;;5056956;28;20041;-84
2022/08/20 08:22:54;;;;;;;9.82;2.20;;;20.50;99.90;;;;;;5032533;28;20041;-85
2022/08/20 08:25:19;;;;;;;9.77;2.05;;;20.60;99.90;;;;;;5057304;28;20033;-85
2022/08/20 08:27:48;;;;;;;7.80;2.10;;;20.70;99.90;;;;;;5049160;28;20033;-84
2022/08/20 08:30:15;;;;;;;9.45;2.13;;;20.70;99.90;;;;;;5035357;28;20040;-85
2022/08/20 08:33:26;;;;;;;8.05;1.65;;;20.80;99.90;;;;;;5053407;28;20123;-85
2022/08/20 08:35:27;;;;;;;9.20;1.70;;;20.90;99.90;;;;;;5073777;28;20485;-85
2022/08/20 08:37:53;;;;;;;7.20;1.73;;;20.90;99.90;;;;;;5059031;28;20079;-85
2022/08/20 08:40:20;;;;;;;9.63;1.83;;;21.00;99.90;;;;;;5054117;28;20095;-85
2022/08/20 08:42:54;;;;;;;8.63;1.65;;;21.00;99.90;;;;;;5064948;28;20521;-84
2022/08/20 08:45:20;;;;;;;10.77;2.05;;;21.10;99.90;;;;;;5056374;28;20044;-85
2022/08/20 08:47:46;;;;;;;10.13;1.95;;;21.10;99.90;;;;;;5072828;28;20055;-84
2022/08/20 08:50:23;;;;;;;9.80;2.08;;;21.20;99.90;;;;;;5046972;28;20061;-84
2022/08/20 08:52:52;;;;;;;10.43;2.10;;;21.20;99.90;;;;;;5055665;28;20040;-85
2022/08/20 08:55:20;;;;;;;7.78;2.20;;;21.30;99.90;;;;;;5046691;28;20036;-85
2022/08/20 08:57:48;;;;;;;8.48;1.98;;;21.30;99.90;;;;;;5072638;28;20135;-85
2022/08/20 09:00:17;;;;;;;8.00;1.58;;;21.40;99.90;;;;;;5055878;28;20036;-85
2022/08/20 09:02:56;;;;;;;8.57;2.08;;;21.40;99.90;;;;;;5035500;28;20147;-85
2022/08/20 09:05:25;;;;;;;7.45;1.83;;;21.40;99.90;;;;;;5052364;28;20070;-85
2022/08/20 09:07:52;;;;;;;11.13;1.80;;;21.40;99.90;;;;;;5065785;28;20029;-85
2022/08/20 09:10:18;;;;;;;7.93;1.70;;;21.50;99.90;;;;;;5055818;28;20046;-85
2022/08/20 09:12:45;;;;;;;7.97;1.80;;;21.50;99.90;;;;;;5046370;28;20407;-85
2022/08/20 09:15:11;;;;;;;8.27;1.40;;;21.60;99.90;;;;;;5055765;28;20032;-85
2022/08/20 09:17:36;;;;;;;8.63;1.60;;;21.60;99.90;;;;;;5048852;28;20037;-85
2022/08/20 09:20:03;;;;;;;10.25;2.10;;;21.60;99.90;;;;;;5069379;28;20047;-85
2022/08/20 09:22:29;;;;;;;8.55;2.03;;;21.60;99.90;;;;;;5073042;28;20127;-85
2022/08/20 09:24:55;;;;;;;9.57;1.60;;;21.70;99.90;;;;;;5058929;28;20090;-85
2022/08/20 09:27:21;;;;;;;7.45;1.30;;;21.70;99.90;;;;;;5051149;28;20133;-85
2022/08/20 09:29:47;;;;;;;8.98;2.63;;;21.80;99.90;;;;;;5066812;28;20098;-85
2022/08/20 09:32:17;;;;;;;10.25;2.63;;;21.80;99.90;;;;;;5071715;28;20119;-85
2022/08/20 09:34:45;;;;;;;8.80;2.20;;;21.90;99.90;;;;;;5052223;28;20029;-84
2022/08/20 09:37:12;;;;;;;8.23;1.58;;;21.90;99.90;;;;;;5052070;28;20063;-84
2022/08/20 09:39:38;;;;;;;8.27;2.00;;;22.00;99.90;;;;;;5052278;28;20041;-84
2022/08/20 09:42:16;;;;;;;10.57;2.33;;;22.10;99.90;;;;;;5042767;28;20041;-85
2022/08/20 09:44:42;;;;;;;8.32;1.70;;;22.10;99.90;;;;;;5043524;28;20044;-85
2022/08/20 09:47:08;;;;;;;9.45;1.70;;;22.20;99.90;;;;;;5042487;28;20041;-85
2022/08/20 09:49:36;;;;;;;7.03;1.55;;;22.20;99.90;;;;;;5056077;28;20064;-85
2022/08/20 09:52:04;;;;;;;8.75;1.70;;;22.30;99.90;;;;;;5034768;28;20114;-85
2022/08/20 09:54:32;;;;;;;8.07;1.40;;;22.30;99.90;;;;;;5051216;28;20036;-86
2022/08/20 09:57:01;;;;;;;8.70;1.90;;;22.40;99.90;;;;;;5069627;28;20044;-85
2022/08/20 09:59:28;;;;;;;7.15;1.50;;;22.40;99.50;;;;;;5064629;28;20082;-85
2022/08/20 10:01:54;;;;;;;6.00;1.30;;;22.50;98.80;;;;;;5054818;28;20062;-85
2022/08/20 10:04:20;;;;;;;8.52;1.40;;;22.50;98.90;;;;;;5071022;28;20518;-85
2022/08/20 10:06:45;;;;;;;8.45;1.50;;;22.60;97.00;;;;;;5054717;28;20098;-85
2022/08/20 10:09:11;;;;;;;7.88;1.50;;;22.60;95.60;;;;;;5071697;28;20401;-85
2022/08/20 10:11:37;;;;;;;6.85;1.60;;;22.70;95.10;;;;;;5062263;28;20434;-85
2022/08/20 10:14:03;;;;;;;7.93;2.00;;;22.70;89.10;;;;;;5051079;28;20264;-85
2022/08/20 10:16:28;;;;;;;8.57;1.90;;;22.70;90.90;;;;;;5057949;28;20041;-85
2022/08/20 10:18:54;;;;;;;9.05;1.83;;;22.80;93.60;;;;;;5043065;28;20041;-85
2022/08/20 10:21:19;;;;;;;7.75;1.80;;;22.80;93.90;;;;;;5041159;28;20053;-86
2022/08/20 10:23:45;;;;;;;8.45;1.98;;;22.90;96.90;;;;;;5059297;28;20037;-85
2022/08/20 10:26:12;;;;;;;8.98;1.92;;;22.90;96.20;;;;;;5033223;28;20068;-85
2022/08/20 10:28:38;;;;;;;6.13;1.30;;;23.00;94.20;;;;;;5033428;28;20068;-85
2022/08/20 10:31:11;;;;;;;9.85;1.90;;;22.90;92.40;;;;;;5050641;28;20075;-85
2022/08/20 10:33:37;;;;;;;7.47;1.70;;;22.80;95.80;;;;;;5070991;28;20050;-85
2022/08/20 10:36:12;;;;;;;7.35;1.50;;;22.90;93.70;;;;;;5044968;28;20161;-85
2022/08/20 10:38:38;;;;;;;8.57;1.63;;;23.00;95.40;;;;;;5071192;28;20394;-85
2022/08/20 10:41:04;;;;;;;8.20;1.75;;;23.10;96.20;;;;;;5069912;28;20043;-86
2022/08/20 10:43:30;;;;;;;9.77;1.75;;;23.10;90.20;;;;;;5053921;28;20051;-84
2022/08/20 10:45:56;;;;;;;8.35;1.80;;;23.20;90.40;;;;;;5051101;28;20506;-85
2022/08/20 10:48:22;;;;;;;8.52;2.08;;;23.20;95.40;;;;;;5039741;28;20116;-86
2022/08/20 10:50:49;;;;;;;7.25;1.60;;;23.20;90.30;;;;;;5054856;28;20077;-86
2022/08/20 10:53:15;;;;;;;7.38;1.73;;;23.30;91.20;;;;;;5050910;28;20045;-85
2022/08/20 10:55:41;;;;;;;7.40;2.03;;;23.40;89.20;;;;;;5041352;28;20044;-85
2022/08/20 10:58:07;;;;;;;9.57;2.08;;;23.30;84.70;;;;;;5034394;28;20052;-85
2022/08/20 11:00:34;;;;;;;8.65;2.28;;;23.40;92.30;;;;;;5041987;28;20075;-85
2022/08/20 11:03:00;;;;;;;9.73;1.85;;;23.40;88.40;;;;;;5070316;28;20043;-85
2022/08/20 11:05:25;;;;;;;10.80;3.30;;;23.40;88.10;;;;;;5053782;28;20059;-86
2022/08/20 11:07:53;;;;;;;7.60;2.15;;;23.60;91.70;;;;;;5048109;28;20029;-85
2022/08/20 11:10:20;;;;;;;10.20;3.17;;;23.80;92.60;;;;;;5050334;28;20044;-85
2022/08/20 11:12:45;;;;;;;9.65;2.78;;;23.90;93.30;;;;;;5049395;28;20043;-85
2022/08/20 11:15:12;;;;;;;10.38;2.58;;;24.00;93.80;;;;;;5050266;28;20033;-85
2022/08/20 11:17:41;;;;;;;8.85;1.90;;;24.10;94.00;;;;;;5049001;28;20037;-85
2022/08/20 11:20:09;;;;;;;8.68;2.03;;;24.10;90.40;;;;;;5033218;28;20036;-85
2022/08/20 11:22:35;;;;;;;9.93;2.30;;;24.10;85.70;;;;;;5049664;28;20029;-85
2022/08/20 11:25:02;;;;;;;8.88;1.88;;;24.00;84.40;;;;;;5038410;28;20401;-85
2022/08/20 11:27:32;;;;;;;9.88;2.60;;;24.00;87.30;;;;;;5060026;28;20040;-85
2022/08/20 11:29:58;;;;;;;8.35;1.80;;;24.10;86.90;;;;;;5061038;28;20034;-85
2022/08/20 11:32:25;;;;;;;9.98;1.98;;;24.10;85.30;;;;;;5036636;28;20040;-85
2022/08/20 11:34:51;;;;;;;9.23;1.90;;;24.10;76.50;;;;;;5033382;28;20037;-86
2022/08/20 11:37:20;;;;;;;8.20;1.63;;;24.10;75.40;;;;;;5038075;28;20040;-85
2022/08/20 11:39:46;;;;;;;8.23;2.13;;;24.30;79.60;;;;;;5070064;28;20074;-86
2022/08/20 11:42:12;;;;;;;8.90;1.90;;;24.30;75.20;;;;;;5070165;28;20456;-85
2022/08/20 11:44:37;;;;;;;8.00;2.00;;;24.20;76.00;;;;;;5044687;28;20448;-85
2022/08/20 11:47:05;;;;;;;8.82;1.73;;;24.10;78.50;;;;;;5053293;28;20036;-85
2022/08/20 11:49:32;;;;;;;8.07;1.60;;;24.00;74.50;;;;;;5060464;28;20032;-86
2022/08/20 11:51:58;;;;;;;8.32;1.90;;;23.90;72.00;;;;;;5069291;28;20041;-86
2022/08/20 11:54:23;;;;;;;6.47;1.40;;;23.80;75.30;;;;;;5061240;28;20037;-85
2022/08/20 11:56:49;;;;;;;7.88;1.95;;;23.80;80.00;;;;;;5069748;28;20041;-85
2022/08/20 11:59:15;;;;;;;9.73;1.77;;;23.90;82.10;;;;;;5069220;28;20074;-85
2022/08/20 12:01:41;;;;;;;12.70;1.98;;;24.10;75.20;;;;;;5055148;28;20041;-86
2022/08/20 12:04:06;;;;;;;9.02;1.80;;;24.30;73.80;;;;;;5049357;28;20190;-85
2022/08/20 12:06:32;;;;;;;9.68;1.80;;;24.40;71.40;;;;;;5057070;28;20041;-85
2022/08/20 12:08:58;;;;;;;7.78;1.92;;;24.70;75.10;;;;;;5032625;28;20445;-85
2022/08/20 12:11:24;;;;;;;7.13;1.35;;;24.70;70.90;;;;;;5038350;28;20036;-85
2022/08/20 12:13:50;;;;;;;9.43;1.77;;;24.70;66.70;;;;;;5052632;28;20401;-86
2022/08/20 12:16:17;;;;;;;7.40;1.45;;;24.60;68.40;;;;;;5053170;28;20052;-85
2022/08/20 12:18:43;;;;;;;8.05;1.80;;;24.60;71.80;;;;;;5068844;28;20036;-85
2022/08/20 12:21:09;;;;;;;10.85;1.75;;;24.60;73.00;;;;;;5068414;28;20405;-86
2022/08/20 12:23:34;;;;;;;7.72;1.42;;;24.80;74.00;;;;;;5067201;28;20470;-85
2022/08/20 12:26:02;;;;;;;8.50;1.50;;;25.00;71.60;;;;;;5061423;28;20042;-85
2022/08/20 12:28:31;;;;;;;7.45;1.55;;;25.10;71.70;;;;;;5064931;28;20457;-85
2022/08/20 12:30:57;;;;;;;8.25;1.80;;;25.30;70.80;;;;;;5050750;28;20029;-85
2022/08/20 12:33:24;;;;;;;7.85;1.50;;;25.40;67.90;;;;;;5035573;28;20037;-85
2022/08/20 12:35:49;;;;;;;8.23;1.95;;;25.20;66.80;;;;;;5032522;28;20127;-86
2022/08/20 12:38:15;;;;;;;7.55;1.58;;;25.10;67.50;;;;;;5035125;28;20123;-86
2022/08/20 12:40:41;;;;;;;8.05;1.75;;;25.10;67.50;;;;;;5049336;28;20045;-85
2022/08/20 12:43:07;;;;;;;8.73;1.58;;;25.10;67.90;;;;;;5055259;28;20075;-85
2022/08/20 12:45:34;;;;;;;6.22;1.25;;;25.10;67.70;;;;;;5070506;28;20459;-85